createdAt,value
2022-10-14T00:02:09.133Z,100364.14
2022-10-14T00:04:39.261Z,100368.00
2022-10-14T00:07:09.067Z,100368.77
2022-10-14T00:09:41.389Z,100374.50
2022-10-14T00:12:12.167Z,100378.55
2022-10-14T00:14:42.447Z,100372.60
2022-10-14T00:17:12.244Z,100371.30
2022-10-14T00:19:42.349Z,100375.72
2022-10-14T00:22:12.150Z,100376.19
2022-10-14T00:24:41.980Z,100377.69
2022-10-14T00:27:11.715Z,100366.59
2022-10-14T00:29:41.529Z,100366.59
2022-10-14T00:32:11.313Z,100375.34
2022-10-14T00:34:41.119Z,100369.33
2022-10-14T00:37:10.899Z,100368.74
2022-10-14T00:39:40.770Z,100367.62
2022-10-14T00:42:16.126Z,100366.48
2022-10-14T00:44:49.278Z,100364.80
2022-10-14T00:47:19.856Z,100361.91
2022-10-14T00:49:50.153Z,100362.16
2022-10-14T00:52:22.564Z,100357.83
2022-10-14T00:54:57.107Z,100352.86
2022-10-14T00:57:27.916Z,100344.30
2022-10-14T01:00:01.786Z,100346.73
2022-10-14T01:02:32.160Z,100346.91
2022-10-14T01:05:03.842Z,100343.32
2022-10-14T01:07:48.682Z,100345.23
2022-10-14T01:10:27.289Z,100341.38
2022-10-14T01:13:18.110Z,100349.91
2022-10-14T01:16:11.864Z,100343.98
2022-10-14T01:18:51.874Z,100331.52
2022-10-14T01:21:39.458Z,100331.26
2022-10-14T01:24:21.214Z,100341.31
2022-10-14T01:27:08.759Z,100337.64
2022-10-14T01:30:00.270Z,100337.64
2022-10-14T01:32:36.022Z,100334.36
2022-10-14T01:35:27.141Z,100339.47
2022-10-14T01:37:59.845Z,100335.16
2022-10-14T01:40:42.452Z,100322.00
2022-10-14T01:43:15.110Z,100318.69
2022-10-14T01:45:47.282Z,100326.23
2022-10-14T01:48:19.814Z,100322.56
2022-10-14T01:50:52.799Z,100325.94
2022-10-14T01:53:28.644Z,100323.52
2022-10-14T01:55:59.695Z,100320.89
2022-10-14T01:58:32.586Z,100316.38
2022-10-14T02:01:09.335Z,100324.73
2022-10-14T02:03:44.630Z,100324.44
2022-10-14T02:06:17.455Z,100329.36
2022-10-14T02:08:50.308Z,100331.14
2022-10-14T02:11:21.656Z,100326.62
2022-10-14T02:13:54.767Z,100324.38
2022-10-14T02:16:27.394Z,100329.62
2022-10-14T02:19:03.386Z,100328.02
2022-10-14T02:21:36.531Z,100331.51
2022-10-14T02:24:12.483Z,100328.69
2022-10-14T02:26:44.995Z,100326.48
2022-10-14T02:29:15.395Z,100323.77
2022-10-14T02:31:46.607Z,100324.61
2022-10-14T02:34:19.430Z,100322.91
2022-10-14T02:36:50.500Z,100319.84
2022-10-14T02:39:20.765Z,100322.48
2022-10-14T02:41:50.694Z,100321.06
2022-10-14T02:44:20.496Z,100321.91
2022-10-14T02:46:51.076Z,100315.51
2022-10-14T02:49:20.800Z,100316.75
2022-10-14T02:51:50.617Z,100309.02
2022-10-14T02:54:20.433Z,100312.52
2022-10-14T02:56:50.252Z,100308.84
2022-10-14T02:59:19.846Z,100307.52
2022-10-14T03:01:50.705Z,100308.74
2022-10-14T03:04:22.307Z,100311.09
2022-10-14T03:06:53.915Z,100311.84
2022-10-14T03:09:24.377Z,100304.13
2022-10-14T03:11:54.566Z,100307.31
2022-10-14T03:14:24.552Z,100303.66
2022-10-14T03:16:54.608Z,100310.90
2022-10-14T03:19:25.646Z,100310.90
2022-10-14T03:21:57.240Z,100312.69
2022-10-14T03:24:27.887Z,100309.57
2022-10-14T03:27:06.215Z,100300.84
2022-10-14T03:29:36.842Z,100308.56
2022-10-14T03:32:08.494Z,100309.30
2022-10-14T03:34:52.197Z,100301.88
2022-10-14T03:37:23.709Z,100308.16
2022-10-14T03:39:55.273Z,100303.66
2022-10-14T03:42:26.660Z,100306.02
2022-10-14T03:44:57.073Z,100298.19
2022-10-14T03:47:28.585Z,100303.38
2022-10-14T03:49:58.603Z,100310.34
2022-10-14T03:52:33.637Z,100304.05
2022-10-14T03:55:06.970Z,100309.49
2022-10-14T03:57:36.746Z,100308.36
2022-10-14T04:00:09.165Z,100312.97
2022-10-14T04:02:44.529Z,100308.55
2022-10-14T04:05:24.985Z,100313.05
2022-10-14T04:07:54.818Z,100303.58
2022-10-14T04:10:24.496Z,100308.16
2022-10-14T04:12:56.996Z,100306.75
2022-10-14T04:15:28.416Z,100308.56
2022-10-14T04:17:59.948Z,100307.44
2022-10-14T04:20:30.975Z,100305.18
2022-10-14T04:23:01.706Z,100303.59
2022-10-14T04:25:31.355Z,100307.70
2022-10-14T04:28:02.882Z,100295.97
2022-10-14T04:30:34.381Z,100293.91
2022-10-14T04:33:04.491Z,100297.73
2022-10-14T04:35:34.396Z,100297.10
2022-10-14T04:38:04.367Z,100294.82
2022-10-14T04:40:34.170Z,100296.80
2022-10-14T04:43:04.362Z,100295.58
2022-10-14T04:45:35.884Z,100296.41
2022-10-14T04:48:06.732Z,100292.58
2022-10-14T04:50:38.639Z,100292.58
2022-10-14T04:53:26.203Z,100290.70
2022-10-14T04:56:00.163Z,100287.69
2022-10-14T04:58:30.602Z,100279.12
2022-10-14T05:01:01.009Z,100278.46
2022-10-14T05:03:38.307Z,100279.12
2022-10-14T05:06:08.388Z,100276.39
2022-10-14T05:08:40.251Z,100274.14
2022-10-14T05:11:11.908Z,100273.86
2022-10-14T05:13:42.676Z,100273.86
2022-10-14T05:16:12.240Z,100271.88
2022-10-14T05:18:42.497Z,100274.89
2022-10-14T05:21:14.078Z,100276.45
2022-10-14T05:24:02.371Z,100275.52
2022-10-14T05:26:33.954Z,100269.81
2022-10-14T05:29:07.123Z,100268.21
2022-10-14T05:31:37.331Z,100264.45
2022-10-14T05:34:08.834Z,100269.53
2022-10-14T05:36:38.978Z,100265.92
2022-10-14T05:39:11.574Z,100267.33
2022-10-14T05:41:41.797Z,100265.08
2022-10-14T05:44:12.995Z,100257.64
2022-10-14T05:46:41.818Z,100261.68
2022-10-14T05:49:12.842Z,100261.73
2022-10-14T05:51:43.824Z,100259.95
2022-10-14T05:54:15.514Z,100266.05
2022-10-14T05:56:46.108Z,100264.73
2022-10-14T05:59:16.855Z,100263.56
2022-10-14T06:01:46.995Z,100261.37
2022-10-14T06:04:21.813Z,100265.40
2022-10-14T06:06:51.642Z,100265.40
2022-10-14T06:09:21.498Z,100272.98
2022-10-14T06:11:51.577Z,100268.73
2022-10-14T06:14:22.203Z,100276.45
2022-10-14T06:16:53.717Z,100273.52
2022-10-14T06:19:23.566Z,100277.57
2022-10-14T06:21:53.370Z,100268.14
2022-10-14T06:24:23.169Z,100270.52
2022-10-14T06:26:52.970Z,100268.86
2022-10-14T06:29:24.195Z,100272.99
2022-10-14T06:31:54.073Z,100266.59
2022-10-14T06:34:24.765Z,100268.44
2022-10-14T06:36:59.869Z,100268.81
2022-10-14T06:39:26.155Z,100266.81
2022-10-14T06:41:56.276Z,100265.77
2022-10-14T06:44:25.951Z,100257.58
2022-10-14T06:46:55.752Z,100257.58
2022-10-14T06:49:25.625Z,100263.33
2022-10-14T06:51:55.494Z,100266.03
2022-10-14T06:54:25.558Z,100266.03
2022-10-14T06:56:55.349Z,100268.50
2022-10-14T06:59:25.867Z,100269.74
2022-10-14T07:01:55.622Z,100265.97
2022-10-14T07:04:25.568Z,100272.32
2022-10-14T07:06:56.980Z,100272.53
2022-10-14T07:09:26.778Z,100270.28
2022-10-14T07:11:57.028Z,100279.16
2022-10-14T07:14:26.824Z,100279.70
2022-10-14T07:16:56.950Z,100277.02
2022-10-14T07:19:27.026Z,100274.05
2022-10-14T07:21:57.149Z,100269.33
2022-10-14T07:24:27.012Z,100274.27
2022-10-14T07:26:56.877Z,100273.39
2022-10-14T07:29:26.721Z,100272.48
2022-10-14T07:31:57.080Z,100273.47
2022-10-14T07:34:27.394Z,100269.30
2022-10-14T07:36:56.880Z,100273.74
2022-10-14T07:39:27.576Z,100270.20
2022-10-14T07:41:57.326Z,100269.73
2022-10-14T07:44:27.538Z,100263.02
2022-10-14T07:46:58.833Z,100263.02
2022-10-14T07:49:27.591Z,100264.95
2022-10-14T07:51:57.091Z,100265.69
2022-10-14T07:54:29.981Z,100260.69
2022-10-14T07:57:00.319Z,100264.95
2022-10-14T07:59:30.506Z,100271.61
2022-10-14T08:02:00.574Z,100274.22
2022-10-14T08:04:30.339Z,100266.98
2022-10-14T08:07:01.218Z,100268.48
2022-10-14T08:09:31.576Z,100275.80
2022-10-14T08:12:01.061Z,100273.80
2022-10-14T08:14:31.189Z,100274.48
2022-10-14T08:17:01.020Z,100275.47
2022-10-14T08:19:31.273Z,100278.78
2022-10-14T08:22:01.089Z,100270.71
2022-10-14T08:24:30.989Z,100273.69
2022-10-14T08:27:01.190Z,100271.86
2022-10-14T08:29:31.012Z,100268.95
2022-10-14T08:32:01.160Z,100266.02
2022-10-14T08:34:31.447Z,100264.20
2022-10-14T08:37:02.889Z,100254.78
2022-10-14T08:39:32.718Z,100260.56
2022-10-14T08:42:26.909Z,100262.86
2022-10-14T08:45:00.012Z,100258.53
2022-10-14T08:47:39.011Z,100255.92
2022-10-14T08:50:30.050Z,100253.42
2022-10-14T08:53:17.567Z,100258.73
2022-10-14T08:55:53.028Z,100258.73
2022-10-14T09:00:56.875Z,100257.39
2022-10-14T09:03:31.260Z,100259.08
2022-10-14T09:06:06.964Z,100258.30
2022-10-14T09:08:41.478Z,100254.33
2022-10-14T09:11:16.889Z,100256.05
2022-10-14T09:13:49.954Z,100256.16
2022-10-14T09:16:25.113Z,100250.09
2022-10-14T09:19:00.493Z,100251.06
2022-10-14T09:21:54.502Z,100240.64
2022-10-14T09:24:32.409Z,100241.18
2022-10-14T09:27:07.889Z,100239.16
2022-10-14T09:29:58.365Z,100245.20
2022-10-14T09:32:36.914Z,100243.92
2022-10-14T09:35:15.766Z,100240.67
2022-10-14T09:37:45.546Z,100228.16
2022-10-14T09:40:18.102Z,100235.04
2022-10-14T09:42:53.885Z,100224.08
2022-10-14T09:45:26.135Z,100235.39
2022-10-14T09:47:58.984Z,100226.55
2022-10-14T09:50:37.857Z,100231.10
2022-10-14T09:53:12.962Z,100233.39
2022-10-14T09:55:51.630Z,100230.19
2022-10-14T09:58:24.371Z,100223.77
2022-10-14T10:00:58.979Z,100228.69
2022-10-14T10:03:35.432Z,100225.48
2022-10-14T10:06:09.145Z,100213.21
2022-10-14T10:08:42.241Z,100228.37
2022-10-14T10:11:13.966Z,100224.75
2022-10-14T10:13:46.332Z,100224.42
2022-10-14T10:16:34.343Z,100226.66
2022-10-14T10:19:21.980Z,100219.23
2022-10-14T10:21:52.317Z,100213.87
2022-10-14T10:24:27.309Z,100209.10
2022-10-14T10:26:55.746Z,100212.89
2022-10-14T10:29:32.909Z,100209.31
2022-10-14T10:32:08.419Z,100207.66
2022-10-14T10:34:53.328Z,100199.06
2022-10-14T10:37:29.188Z,100203.42
2022-10-14T10:40:20.225Z,100196.73
2022-10-14T10:43:09.278Z,100193.75
2022-10-14T10:46:03.634Z,100195.11
2022-10-14T10:48:50.106Z,100194.28
2022-10-14T10:51:34.706Z,100193.07
2022-10-14T10:54:10.558Z,100166.59
2022-10-14T10:56:46.370Z,100166.59
2022-10-14T10:59:43.261Z,100180.93
2022-10-14T11:02:33.419Z,100177.42
2022-10-14T11:05:12.175Z,100174.29
2022-10-14T11:08:18.812Z,100167.06
2022-10-14T11:11:36.669Z,100173.27
2022-10-14T11:14:12.696Z,100165.09
2022-10-14T11:16:51.164Z,100167.81
2022-10-14T11:19:33.367Z,100167.43
2022-10-14T11:22:06.247Z,100163.70
2022-10-14T11:24:58.935Z,100168.23
2022-10-14T11:27:44.469Z,100162.96
2022-10-14T11:30:20.134Z,100163.22
2022-10-14T11:33:06.475Z,100165.13
2022-10-14T11:36:00.848Z,100160.53
2022-10-14T11:38:46.658Z,100157.59
2022-10-14T11:41:38.683Z,100155.72
2022-10-14T11:44:11.219Z,100156.58
2022-10-14T11:46:44.228Z,100155.22
2022-10-14T11:49:29.040Z,100156.56
2022-10-14T11:52:04.758Z,100151.53
2022-10-14T11:54:40.712Z,100151.05
2022-10-14T11:57:33.409Z,100142.02
2022-10-14T12:00:22.913Z,100147.35
2022-10-14T12:03:28.777Z,100131.77
2022-10-14T12:06:07.390Z,100131.77
2022-10-14T12:08:58.506Z,100140.66
2022-10-14T12:11:40.346Z,100133.77
2022-10-14T12:14:23.338Z,100126.73
2022-10-14T12:16:56.732Z,100126.73
2022-10-14T12:19:29.529Z,100120.03
2022-10-14T12:22:29.690Z,100118.19
2022-10-14T12:25:02.812Z,100120.06
2022-10-14T12:27:33.355Z,100115.17
2022-10-14T12:30:03.827Z,100118.22
2022-10-14T12:32:35.190Z,100115.70
2022-10-14T12:35:10.258Z,100112.68
2022-10-14T12:37:46.496Z,100111.36
2022-10-14T12:40:19.490Z,100110.66
2022-10-14T12:42:56.830Z,100111.13
2022-10-14T12:45:29.785Z,100089.74
2022-10-14T12:48:24.629Z,100089.74
2022-10-14T12:51:00.307Z,100103.31
2022-10-14T12:53:34.352Z,100096.28
2022-10-14T12:56:05.963Z,100096.37
2022-10-14T12:58:41.517Z,100096.37
2022-10-14T13:01:20.064Z,100090.27
2022-10-14T13:04:00.170Z,100087.87
2022-10-14T13:06:39.505Z,100087.73
2022-10-14T13:09:18.151Z,100091.91
2022-10-14T13:11:53.784Z,100092.54
2022-10-14T13:14:32.120Z,100088.59
2022-10-14T13:17:08.325Z,100085.52
2022-10-14T13:19:42.838Z,100087.23
2022-10-14T13:22:34.455Z,100091.37
2022-10-14T13:25:15.261Z,100082.84
2022-10-14T13:27:48.110Z,100088.37
2022-10-14T13:30:23.582Z,100090.22
2022-10-14T13:33:02.193Z,100087.56
2022-10-14T13:35:35.097Z,100086.20
2022-10-14T13:38:08.007Z,100067.30
2022-10-14T13:40:53.364Z,100067.30
2022-10-14T13:43:42.301Z,100089.92
2022-10-14T13:46:20.260Z,100055.08
2022-10-14T13:48:55.716Z,100085.39
2022-10-14T13:51:36.461Z,100067.87
2022-10-14T13:54:26.707Z,100067.87
2022-10-14T13:57:38.148Z,100083.92
2022-10-14T14:00:19.519Z,100089.77
2022-10-14T14:02:26.362Z,100078.13
2022-10-14T14:04:59.254Z,100080.27
2022-10-14T14:08:08.001Z,100081.49
2022-10-14T14:10:09.761Z,100076.64
2022-10-14T14:12:42.609Z,100083.83
2022-10-14T14:15:25.597Z,100076.48
2022-10-14T14:17:55.665Z,100075.91
2022-10-14T14:20:29.278Z,100078.63
2022-10-14T14:23:00.302Z,100086.44
2022-10-14T14:25:36.697Z,100082.75
2022-10-14T14:28:06.868Z,100080.57
2022-10-14T14:30:39.770Z,100083.06
2022-10-14T14:33:12.689Z,100089.27
2022-10-14T14:35:57.744Z,100090.12
2022-10-14T14:38:32.211Z,100089.31
2022-10-14T14:41:20.032Z,100086.64
2022-10-14T14:44:13.645Z,100082.98
2022-10-14T14:46:36.732Z,100083.54
2022-10-14T14:49:08.670Z,100081.13
2022-10-14T14:51:40.802Z,100079.18
2022-10-14T14:54:19.192Z,100082.46
2022-10-14T14:56:52.028Z,100085.97
2022-10-14T14:59:27.079Z,100086.18
2022-10-14T15:04:33.502Z,100075.59
2022-10-14T15:07:21.101Z,100080.48
2022-10-14T15:09:52.004Z,100075.09
2022-10-14T15:12:28.340Z,100073.24
2022-10-14T15:15:06.347Z,100073.24
2022-10-14T15:17:42.044Z,100070.27
2022-10-14T15:20:17.469Z,100073.03
2022-10-14T15:22:51.970Z,100074.92
2022-10-14T15:25:25.791Z,100073.59
2022-10-14T15:27:57.327Z,100068.84
2022-10-14T15:30:45.308Z,100070.41
2022-10-14T15:33:23.072Z,100066.81
2022-10-14T15:36:01.888Z,100066.09
2022-10-14T15:41:05.394Z,100062.12
2022-10-14T15:43:36.837Z,100061.78
2022-10-14T15:46:23.945Z,100059.45
2022-10-14T15:48:55.740Z,100056.85
2022-10-14T15:51:27.468Z,100056.85
2022-10-14T15:53:58.285Z,100061.06
2022-10-14T15:56:30.117Z,100061.06
2022-10-14T15:59:00.036Z,100060.61
2022-10-14T16:01:29.911Z,100064.20
2022-10-14T16:04:00.889Z,100061.32
2022-10-14T16:06:32.509Z,100065.40
2022-10-14T16:09:02.014Z,100063.31
2022-10-14T16:11:32.576Z,100067.80
2022-10-14T16:14:02.186Z,100063.02
2022-10-14T16:16:38.182Z,100066.41
2022-10-14T16:19:08.054Z,100063.02
2022-10-14T16:21:40.028Z,100065.48
2022-10-14T16:24:12.752Z,100064.54
2022-10-14T16:26:42.524Z,100060.66
2022-10-14T16:29:13.365Z,100061.70
2022-10-14T16:31:43.225Z,100062.13
2022-10-14T16:34:13.733Z,100066.33
2022-10-14T16:36:43.811Z,100064.77
2022-10-14T16:39:14.321Z,100063.29
2022-10-14T16:41:44.268Z,100063.91
2022-10-14T16:44:16.363Z,100062.52
2022-10-14T16:47:02.701Z,100065.19
2022-10-14T16:49:32.476Z,100069.05
2022-10-14T16:52:02.276Z,100065.62
2022-10-14T16:54:32.200Z,100066.23
2022-10-14T16:57:02.970Z,100065.16
2022-10-14T16:59:33.441Z,100069.61
2022-10-14T17:02:04.494Z,100067.24
2022-10-14T17:04:33.533Z,100067.24
2022-10-14T17:07:04.913Z,100067.87
2022-10-14T17:09:39.347Z,100068.59
2022-10-14T17:12:13.763Z,100064.63
2022-10-14T17:14:42.916Z,100060.28
2022-10-14T17:17:13.203Z,100059.23
2022-10-14T17:19:43.026Z,100061.03
2022-10-14T17:22:13.513Z,100059.22
2022-10-14T17:24:43.320Z,100060.55
2022-10-14T17:27:12.914Z,100057.16
2022-10-14T17:29:42.864Z,100054.06
2022-10-14T17:32:12.587Z,100051.52
2022-10-14T17:34:42.370Z,100057.77
2022-10-14T17:37:12.197Z,100049.22
2022-10-14T17:39:41.996Z,100044.40
2022-10-14T17:42:11.491Z,100043.79
2022-10-14T17:44:43.785Z,100038.71
2022-10-14T17:47:13.170Z,100038.71
2022-10-14T17:49:43.234Z,100044.02
2022-10-14T17:52:13.032Z,100045.59
2022-10-14T17:54:42.820Z,100046.41
2022-10-14T17:57:12.338Z,100035.69
2022-10-14T17:59:42.114Z,100040.63
2022-10-14T18:02:14.894Z,100040.50
2022-10-14T18:04:44.700Z,100038.04
2022-10-14T18:07:15.258Z,100038.04
2022-10-14T18:09:44.757Z,100044.88
2022-10-14T18:12:14.291Z,100042.72
2022-10-14T18:14:44.210Z,100040.33
2022-10-14T18:17:14.136Z,100042.97
2022-10-14T18:19:47.198Z,100045.93
2022-10-14T18:22:16.143Z,100050.83
2022-10-14T18:24:45.781Z,100049.00
2022-10-14T18:27:15.317Z,100045.84
2022-10-14T18:29:45.122Z,100044.38
2022-10-14T18:32:14.635Z,100048.94
2022-10-14T18:34:44.795Z,100044.13
2022-10-14T18:37:14.710Z,100042.61
2022-10-14T18:42:28.230Z,100045.73
2022-10-14T18:44:59.141Z,100044.13
2022-10-14T18:47:29.195Z,100043.39
2022-10-14T18:49:59.680Z,100042.98
2022-10-14T18:52:29.516Z,100048.23
2022-10-14T18:54:59.496Z,100046.13
2022-10-14T18:57:29.826Z,100051.89
2022-10-14T18:59:59.486Z,100059.45
2022-10-14T19:02:29.408Z,100055.66
2022-10-14T19:04:59.501Z,100056.34
2022-10-14T19:07:29.274Z,100053.64
2022-10-14T19:09:59.082Z,100058.19
2022-10-14T19:12:44.402Z,100058.19
2022-10-14T19:15:14.340Z,100051.91
2022-10-14T19:17:45.966Z,100046.88
2022-10-14T19:20:16.804Z,100048.59
2022-10-14T19:22:46.669Z,100049.64
2022-10-14T19:25:20.489Z,100044.20
2022-10-14T19:27:51.804Z,100044.58
2022-10-14T19:30:21.549Z,100047.31
2022-10-14T19:32:52.284Z,100043.36
2022-10-14T19:35:22.275Z,100038.55
2022-10-14T19:37:52.117Z,100038.55
2022-10-14T19:40:23.699Z,100037.60
2022-10-14T19:42:53.197Z,100037.38
2022-10-14T19:45:23.518Z,100038.33
2022-10-14T19:47:53.755Z,100029.28
2022-10-14T19:50:23.258Z,100029.28
2022-10-14T19:52:53.034Z,100030.23
2022-10-14T19:55:22.700Z,100032.97
2022-10-14T19:57:54.123Z,100033.39
2022-10-14T20:00:25.586Z,100033.27
2022-10-14T20:02:55.378Z,100034.58
2022-10-14T20:05:25.005Z,100030.86
2022-10-14T20:07:55.012Z,100031.71
2022-10-14T20:10:24.853Z,100033.98
2022-10-14T20:12:54.653Z,100028.27
2022-10-14T20:15:24.499Z,100029.89
2022-10-14T20:17:54.441Z,100026.98
2022-10-14T20:20:24.253Z,100024.55
2022-10-14T20:22:54.041Z,100027.19
2022-10-14T20:25:23.785Z,100023.67
2022-10-14T20:27:53.596Z,100026.41
2022-10-14T20:30:23.385Z,100019.11
2022-10-14T20:32:54.636Z,100019.11
2022-10-14T20:35:24.866Z,100019.78
2022-10-14T20:37:54.521Z,100020.93
2022-10-14T20:40:24.307Z,100018.94
2022-10-14T20:42:54.222Z,100020.46
2022-10-14T20:45:23.898Z,100020.46
2022-10-14T20:47:53.958Z,100017.78
2022-10-14T20:50:23.614Z,100013.63
2022-10-14T20:52:53.402Z,100010.55
2022-10-14T20:55:23.019Z,100012.72
2022-10-14T20:57:52.834Z,100015.29
2022-10-14T21:00:22.733Z,100013.27
2022-10-14T21:02:52.817Z,100009.14
2022-10-14T21:05:22.642Z,100016.67
2022-10-14T21:07:53.090Z,100013.69
2022-10-14T21:10:23.078Z,100012.94
2022-10-14T21:12:52.888Z,100012.77
2022-10-14T21:15:24.342Z,100011.68
2022-10-14T21:17:54.657Z,100007.01
2022-10-14T21:20:24.174Z,100007.01
2022-10-14T21:22:54.075Z,100007.20
2022-10-14T21:25:23.655Z,100003.17
2022-10-14T21:27:53.439Z,100000.64
2022-10-14T21:30:23.038Z,99994.28
2022-10-14T21:32:52.978Z,99995.05
2022-10-14T21:35:22.621Z,99993.16
2022-10-14T21:37:55.364Z,99986.88
2022-10-14T21:40:25.331Z,99985.30
2022-10-14T21:42:55.539Z,99978.55
2022-10-14T21:45:25.331Z,99974.38
2022-10-14T21:47:55.215Z,99974.38
2022-10-14T21:50:25.735Z,99973.94
2022-10-14T21:52:55.296Z,99969.63
2022-10-14T21:55:25.124Z,99964.45
2022-10-14T21:57:55.080Z,99969.72
2022-10-14T22:00:24.990Z,99973.95
2022-10-14T22:02:55.486Z,99973.95
2022-10-14T22:05:25.001Z,99972.92
2022-10-14T22:07:55.105Z,99976.67
2022-10-14T22:10:43.705Z,99973.20
2022-10-14T22:13:13.577Z,99971.33
2022-10-14T22:15:44.234Z,99973.23
2022-10-14T22:18:14.475Z,99972.95
2022-10-14T22:20:44.668Z,99959.25
2022-10-14T22:23:14.764Z,99959.25
2022-10-14T22:25:44.589Z,99960.19
2022-10-14T22:28:14.159Z,99953.42
2022-10-14T22:30:43.993Z,99950.27
2022-10-14T22:33:13.722Z,99955.67
2022-10-14T22:35:44.128Z,99951.11
2022-10-14T22:38:13.626Z,99946.32
2022-10-14T22:40:43.532Z,99943.41
2022-10-14T22:43:13.414Z,99942.53
2022-10-14T22:45:43.221Z,99938.97
2022-10-14T22:48:13.086Z,99938.97
2022-10-14T22:50:43.240Z,99934.74
2022-10-14T22:53:12.867Z,99929.86
2022-10-14T22:55:42.755Z,99935.96
2022-10-14T22:58:13.338Z,99942.16
2022-10-14T23:00:42.916Z,99945.35
2022-10-14T23:03:13.054Z,99945.75
2022-10-14T23:05:42.944Z,99940.31
2022-10-14T23:08:14.275Z,99940.28
2022-10-14T23:10:43.970Z,99935.96
2022-10-14T23:13:13.765Z,99927.05
2022-10-14T23:15:43.884Z,99929.20
2022-10-14T23:18:13.414Z,99926.98
2022-10-14T23:20:43.214Z,99927.05
2022-10-14T23:23:12.875Z,99929.95
2022-10-14T23:25:42.883Z,99927.23
2022-10-14T23:28:12.385Z,99917.94
2022-10-14T23:30:42.519Z,99918.88
2022-10-14T23:33:12.597Z,99913.91
2022-10-14T23:35:42.540Z,99913.89
2022-10-14T23:38:13.797Z,99910.70
2022-10-14T23:40:43.879Z,99910.89
2022-10-14T23:43:13.725Z,99909.67
2022-10-14T23:45:44.632Z,99905.73
2022-10-14T23:48:14.247Z,99906.30
2022-10-14T23:50:44.686Z,99899.72
2022-10-14T23:53:15.023Z,99898.69
2022-10-14T23:55:44.747Z,99894.66
2022-10-14T23:58:14.682Z,99891.75
